createdAt,value
2018-04-06T00:00:08.614Z,5.95
2018-04-06T00:01:08.623Z,5.95
2018-04-06T00:02:08.627Z,6.00
2018-04-06T00:03:08.634Z,5.93
2018-04-06T00:04:08.655Z,5.91
2018-04-06T00:05:08.649Z,5.85
2018-04-06T00:06:08.655Z,5.82
2018-04-06T00:07:08.661Z,5.81
2018-04-06T00:08:08.676Z,5.73
2018-04-06T00:09:08.679Z,5.82
2018-04-06T00:10:08.682Z,5.74
2018-04-06T00:11:08.694Z,5.75
2018-04-06T00:12:08.700Z,5.67
2018-04-06T00:13:08.706Z,5.57
2018-04-06T00:14:08.719Z,5.37
2018-04-06T00:15:08.717Z,5.30
2018-04-06T00:16:08.725Z,5.35
2018-04-06T00:17:08.734Z,5.35
2018-04-06T00:18:08.738Z,5.32
2018-04-06T00:19:08.747Z,5.30
2018-04-06T00:20:08.758Z,5.31
2018-04-06T00:21:08.764Z,5.23
2018-04-06T00:22:08.768Z,5.13
2018-04-06T00:23:08.773Z,5.22
2018-04-06T00:24:08.783Z,5.16
2018-04-06T00:25:08.787Z,5.20
2018-04-06T00:26:08.801Z,5.20
2018-04-06T00:27:08.803Z,5.19
2018-04-06T00:28:08.818Z,5.17
2018-04-06T00:29:08.819Z,5.13
2018-04-06T00:30:08.822Z,5.12
2018-04-06T00:31:08.827Z,4.98
2018-04-06T00:32:08.840Z,4.98
2018-04-06T00:33:08.843Z,5.07
2018-04-06T00:34:08.861Z,5.05
2018-04-06T00:35:08.859Z,5.04
2018-04-06T00:36:08.862Z,5.09
2018-04-06T00:37:08.874Z,5.02
2018-04-06T00:38:08.880Z,5.01
2018-04-06T00:39:08.884Z,4.94
2018-04-06T00:40:08.890Z,4.99
2018-04-06T00:41:08.897Z,4.94
2018-04-06T00:42:08.902Z,4.95
2018-04-06T00:43:08.907Z,4.86
2018-04-06T00:44:08.924Z,4.89
2018-04-06T00:45:08.927Z,4.89
2018-04-06T00:46:08.933Z,4.91
2018-04-06T00:47:08.939Z,4.92
2018-04-06T00:48:08.944Z,5.01
2018-04-06T00:49:08.950Z,4.89
2018-04-06T00:50:08.959Z,4.91
2018-04-06T00:51:08.962Z,4.83
2018-04-06T00:52:08.971Z,4.91
2018-04-06T00:53:08.978Z,4.88
2018-04-06T00:54:08.986Z,4.83
2018-04-06T00:55:09.015Z,4.88
2018-04-06T00:56:09.003Z,4.80
2018-04-06T00:57:09.005Z,4.88
2018-04-06T00:58:09.008Z,4.83
2018-04-06T00:59:09.018Z,4.88
2018-04-06T01:00:09.021Z,4.76
2018-04-06T01:01:09.027Z,4.70
2018-04-06T01:02:09.040Z,4.72
2018-04-06T01:03:09.041Z,4.70
2018-04-06T01:04:09.048Z,4.69
2018-04-06T01:05:09.053Z,4.58
2018-04-06T01:06:09.060Z,4.58
2018-04-06T01:07:09.070Z,4.58
2018-04-06T01:08:09.073Z,4.59
2018-04-06T01:09:09.083Z,4.46
2018-04-06T01:10:09.091Z,4.46
2018-04-06T01:11:09.101Z,4.46
2018-04-06T01:12:09.101Z,4.44
2018-04-06T01:13:09.106Z,4.43
2018-04-06T01:14:09.116Z,4.47
2018-04-06T01:15:09.122Z,4.42
2018-04-06T01:16:09.124Z,4.36
2018-04-06T01:17:09.135Z,4.37
2018-04-06T01:18:09.146Z,4.36
2018-04-06T01:19:09.151Z,4.43
2018-04-06T01:20:09.160Z,4.39
2018-04-06T01:21:09.165Z,4.36
2018-04-06T01:22:09.169Z,4.37
2018-04-06T01:23:09.171Z,4.34
2018-04-06T01:24:09.177Z,4.42
2018-04-06T01:25:09.186Z,4.37
2018-04-06T01:26:09.189Z,4.33
2018-04-06T01:27:09.203Z,4.33
2018-04-06T01:28:09.201Z,4.43
2018-04-06T01:29:09.208Z,4.43
2018-04-06T01:30:09.221Z,4.33
2018-04-06T01:31:09.223Z,4.28
2018-04-06T01:32:09.228Z,4.19
2018-04-06T01:33:09.243Z,4.34
2018-04-06T01:34:09.241Z,4.22
2018-04-06T01:35:09.247Z,4.19
2018-04-06T01:36:09.254Z,4.28
2018-04-06T01:37:09.270Z,4.28
2018-04-06T01:38:09.267Z,4.15
2018-04-06T01:39:09.277Z,4.18
2018-04-06T01:40:09.278Z,4.18
2018-04-06T01:41:09.286Z,4.12
2018-04-06T01:42:09.295Z,4.03
2018-04-06T01:43:09.296Z,3.94
2018-04-06T01:44:09.300Z,3.85
2018-04-06T01:45:09.320Z,3.80
2018-04-06T01:46:09.315Z,3.97
2018-04-06T01:47:09.327Z,4.04
2018-04-06T01:48:09.328Z,4.07
2018-04-06T01:49:09.336Z,4.08
2018-04-06T01:50:09.337Z,4.04
2018-04-06T01:51:09.346Z,4.04
2018-04-06T01:52:09.370Z,4.01
2018-04-06T01:53:09.362Z,3.97
2018-04-06T01:54:09.365Z,3.97
2018-04-06T01:55:09.371Z,3.94
2018-04-06T01:56:09.380Z,3.94
2018-04-06T01:57:09.395Z,3.92
2018-04-06T01:58:09.404Z,3.96
2018-04-06T01:59:09.446Z,3.92
2018-04-06T02:00:09.399Z,3.83
2018-04-06T02:01:09.407Z,3.86
2018-04-06T02:02:09.413Z,3.88
2018-04-06T02:03:09.418Z,3.92
2018-04-06T02:04:09.434Z,3.85
2018-04-06T02:05:09.439Z,3.67
2018-04-06T02:06:09.436Z,3.52
2018-04-06T02:07:09.443Z,3.53
2018-04-06T02:08:09.510Z,3.46
2018-04-06T02:09:09.453Z,3.52
2018-04-06T02:10:09.479Z,3.58
2018-04-06T02:11:09.468Z,3.58
2018-04-06T02:12:09.479Z,3.64
2018-04-06T02:13:09.502Z,3.71
2018-04-06T02:14:09.486Z,3.67
2018-04-06T02:15:09.493Z,3.64
2018-04-06T02:16:09.507Z,3.68
2018-04-06T02:17:09.506Z,3.67
2018-04-06T02:18:09.510Z,3.68
2018-04-06T02:19:09.516Z,3.62
2018-04-06T02:20:09.520Z,3.79
2018-04-06T02:21:09.530Z,3.78
2018-04-06T02:22:09.540Z,3.75
2018-04-06T02:23:09.551Z,3.76
2018-04-06T02:24:09.543Z,3.82
2018-04-06T02:25:09.551Z,3.72
2018-04-06T02:26:09.557Z,3.82
2018-04-06T02:27:09.561Z,3.86
2018-04-06T02:28:09.574Z,3.90
2018-04-06T02:29:09.574Z,3.75
2018-04-06T02:30:09.582Z,3.79
2018-04-06T02:31:09.590Z,3.78
2018-04-06T02:32:09.598Z,3.65
2018-04-06T02:33:09.598Z,3.79
2018-04-06T02:34:09.624Z,3.78
2018-04-06T02:35:09.614Z,3.71
2018-04-06T02:36:09.620Z,3.64
2018-04-06T02:37:09.626Z,3.68
2018-04-06T02:38:09.634Z,3.60
2018-04-06T02:39:09.633Z,3.71
2018-04-06T02:40:09.648Z,3.64
2018-04-06T02:41:09.654Z,3.50
2018-04-06T02:42:09.654Z,3.67
2018-04-06T02:43:09.660Z,3.68
2018-04-06T02:44:09.664Z,3.68
2018-04-06T02:45:09.679Z,3.71
2018-04-06T02:46:09.682Z,3.61
2018-04-06T02:47:09.684Z,3.62
2018-04-06T02:48:09.690Z,3.54
2018-04-06T02:49:09.697Z,3.61
2018-04-06T02:50:09.702Z,3.64
2018-04-06T02:51:09.716Z,3.62
2018-04-06T02:52:09.723Z,3.61
2018-04-06T02:53:09.717Z,3.52
2018-04-06T02:54:09.722Z,3.53
2018-04-06T02:55:09.729Z,3.62
2018-04-06T02:56:09.733Z,3.54
2018-04-06T02:57:09.741Z,3.44
2018-04-06T02:58:09.755Z,3.36
2018-04-06T02:59:09.754Z,3.39
2018-04-06T03:00:09.759Z,3.42
2018-04-06T03:01:09.765Z,3.28
2018-04-06T03:02:09.768Z,3.44
2018-04-06T03:03:09.814Z,3.40
2018-04-06T03:04:09.777Z,3.31
2018-04-06T03:05:09.792Z,3.33
2018-04-06T03:06:09.790Z,3.24
2018-04-06T03:07:09.798Z,3.21
2018-04-06T03:08:09.803Z,3.25
2018-04-06T03:09:09.808Z,3.36
2018-04-06T03:10:09.818Z,3.34
2018-04-06T03:11:09.829Z,3.21
2018-04-06T03:12:09.826Z,3.25
2018-04-06T03:13:09.835Z,3.30
2018-04-06T03:14:09.838Z,3.25
2018-04-06T03:15:09.842Z,3.28
2018-04-06T03:16:09.858Z,3.30
2018-04-06T03:17:09.859Z,3.25
2018-04-06T03:18:09.859Z,3.33
2018-04-06T03:19:09.868Z,3.27
2018-04-06T03:20:09.871Z,3.30
2018-04-06T03:21:09.880Z,3.33
2018-04-06T03:22:09.883Z,3.28
2018-04-06T03:23:09.896Z,3.15
2018-04-06T03:24:09.898Z,3.31
2018-04-06T03:25:09.899Z,3.24
2018-04-06T03:26:09.905Z,3.16
2018-04-06T03:27:09.913Z,3.31
2018-04-06T03:28:09.919Z,3.25
2018-04-06T03:29:09.934Z,3.31
2018-04-06T03:30:09.928Z,3.27
2018-04-06T03:31:09.938Z,3.30
2018-04-06T03:32:09.939Z,3.25
2018-04-06T03:33:09.945Z,3.27
2018-04-06T03:34:09.950Z,3.30
2018-04-06T03:35:09.964Z,3.21
2018-04-06T03:36:09.963Z,3.18
2018-04-06T03:37:09.967Z,3.23
2018-04-06T03:38:09.975Z,3.25
2018-04-06T03:39:09.979Z,3.15
2018-04-06T03:40:09.988Z,3.18
2018-04-06T03:41:09.992Z,3.25
2018-04-06T03:42:09.993Z,3.23
2018-04-06T03:43:10.001Z,3.25
2018-04-06T03:44:10.008Z,3.27
2018-04-06T03:45:10.013Z,3.27
2018-04-06T03:46:10.020Z,3.25
2018-04-06T03:47:10.032Z,3.21
2018-04-06T03:48:10.028Z,3.23
2018-04-06T03:49:10.039Z,3.06
2018-04-06T03:50:10.042Z,3.18
2018-04-06T03:51:10.046Z,3.09
2018-04-06T03:52:10.049Z,3.23
2018-04-06T03:53:10.088Z,3.21
2018-04-06T03:54:10.062Z,3.20
2018-04-06T03:55:10.066Z,3.15
2018-04-06T03:56:10.080Z,3.20
2018-04-06T03:57:10.078Z,3.18
2018-04-06T03:58:10.084Z,3.21
2018-04-06T03:59:10.092Z,3.13
2018-04-06T04:00:10.098Z,3.06
2018-04-06T04:01:10.103Z,3.05
2018-04-06T04:02:10.113Z,3.03
2018-04-06T04:03:10.110Z,3.05
2018-04-06T04:04:10.117Z,3.07
2018-04-06T04:05:10.134Z,3.07
2018-04-06T04:06:10.138Z,3.12
2018-04-06T04:07:10.134Z,3.06
2018-04-06T04:08:10.139Z,3.06
2018-04-06T04:09:10.144Z,3.07
2018-04-06T04:10:10.148Z,3.06
2018-04-06T04:11:10.159Z,2.92
2018-04-06T04:12:10.165Z,2.92
2018-04-06T04:13:10.167Z,2.95
2018-04-06T04:14:10.170Z,2.91
2018-04-06T04:15:10.177Z,2.94
2018-04-06T04:16:10.183Z,3.00
2018-04-06T04:17:10.197Z,2.89
2018-04-06T04:18:10.194Z,2.91
2018-04-06T04:19:10.202Z,2.89
2018-04-06T04:20:10.206Z,2.87
2018-04-06T04:21:10.211Z,2.79
2018-04-06T04:22:10.222Z,2.98
2018-04-06T04:23:10.228Z,2.95
2018-04-06T04:24:10.230Z,2.92
2018-04-06T04:25:10.233Z,2.94
2018-04-06T04:26:10.235Z,2.94
2018-04-06T04:27:10.245Z,2.87
2018-04-06T04:28:10.260Z,2.97
2018-04-06T04:29:10.265Z,2.88
2018-04-06T04:30:10.261Z,2.77
2018-04-06T04:31:10.263Z,2.81
2018-04-06T04:32:10.269Z,2.79
2018-04-06T04:33:10.276Z,2.81
2018-04-06T04:34:10.281Z,2.81
2018-04-06T04:35:10.295Z,2.77
2018-04-06T04:36:10.296Z,2.77
2018-04-06T04:37:10.295Z,2.79
2018-04-06T04:38:10.300Z,2.76
2018-04-06T04:39:10.305Z,2.76
2018-04-06T04:40:10.311Z,2.67
2018-04-06T04:41:10.323Z,2.74
2018-04-06T04:42:10.324Z,2.74
2018-04-06T04:43:10.329Z,2.56
2018-04-06T04:44:10.334Z,2.56
2018-04-06T04:45:10.341Z,2.58
2018-04-06T04:46:10.366Z,2.61
2018-04-06T04:47:10.353Z,2.69
2018-04-06T04:48:10.355Z,2.63
2018-04-06T04:49:10.360Z,2.67
2018-04-06T04:50:10.363Z,2.66
2018-04-06T04:51:10.369Z,2.67
2018-04-06T04:52:10.375Z,2.71
2018-04-06T04:53:10.398Z,2.59
2018-04-06T04:54:10.387Z,2.70
2018-04-06T04:55:10.391Z,2.63
2018-04-06T04:56:10.395Z,2.74
2018-04-06T04:57:10.404Z,2.73
2018-04-06T04:58:10.406Z,2.77
2018-04-06T04:59:10.422Z,2.77
2018-04-06T05:00:10.417Z,2.84
2018-04-06T05:01:10.425Z,2.77
2018-04-06T05:02:10.429Z,2.76
2018-04-06T05:03:10.431Z,2.73
2018-04-06T05:04:10.449Z,2.71
2018-04-06T05:05:10.449Z,2.74
2018-04-06T05:06:10.461Z,2.67
2018-04-06T05:07:10.453Z,2.77
2018-04-06T05:08:10.458Z,2.77
2018-04-06T05:09:10.464Z,2.69
2018-04-06T05:10:10.469Z,2.61
2018-04-06T05:11:10.481Z,2.41
2018-04-06T05:12:10.482Z,2.38
2018-04-06T05:13:10.490Z,2.35
2018-04-06T05:14:10.491Z,2.33
2018-04-06T05:15:10.498Z,2.15
2018-04-06T05:16:10.505Z,2.19
2018-04-06T05:17:10.521Z,2.33
2018-04-06T05:18:10.512Z,2.35
2018-04-06T05:19:10.520Z,2.41
2018-04-06T05:20:10.522Z,2.49
2018-04-06T05:21:10.530Z,2.48
2018-04-06T05:22:10.535Z,2.44
2018-04-06T05:23:10.544Z,2.61
2018-04-06T05:24:10.546Z,2.59
2018-04-06T05:25:10.549Z,2.66
2018-04-06T05:26:10.554Z,2.74
2018-04-06T05:27:10.559Z,2.73
2018-04-06T05:28:10.569Z,2.66
2018-04-06T05:29:10.570Z,2.77
2018-04-06T05:30:10.585Z,2.74
2018-04-06T05:31:10.584Z,2.91
2018-04-06T05:32:10.591Z,2.84
2018-04-06T05:33:10.596Z,2.89
2018-04-06T05:34:10.597Z,2.87
2018-04-06T05:35:10.604Z,2.88
2018-04-06T05:36:10.618Z,2.89
2018-04-06T05:37:10.613Z,2.95
2018-04-06T05:38:10.619Z,3.03
2018-04-06T05:39:10.623Z,3.07
2018-04-06T05:40:10.629Z,3.02
2018-04-06T05:41:10.635Z,3.05
2018-04-06T05:42:10.639Z,3.13
2018-04-06T05:43:10.658Z,3.18
2018-04-06T05:44:10.658Z,3.24
2018-04-06T05:45:10.657Z,3.23
2018-04-06T05:46:10.666Z,3.34
2018-04-06T05:47:10.669Z,3.25
2018-04-06T05:48:10.674Z,3.31
2018-04-06T05:49:10.693Z,3.33
2018-04-06T05:50:10.687Z,3.43
2018-04-06T05:51:10.694Z,3.43
2018-04-06T05:52:10.699Z,3.43
2018-04-06T05:53:10.722Z,3.49
2018-04-06T05:54:10.711Z,3.44
2018-04-06T05:55:10.733Z,3.52
2018-04-06T05:56:10.717Z,3.57
2018-04-06T05:57:10.724Z,3.60
2018-04-06T05:58:10.730Z,3.58
2018-04-06T05:59:10.738Z,3.68
2018-04-06T06:00:10.753Z,3.65
2018-04-06T06:01:10.758Z,3.67
2018-04-06T06:02:10.750Z,3.68
2018-04-06T06:03:10.757Z,3.65
2018-04-06T06:04:10.764Z,3.62
2018-04-06T06:05:10.769Z,3.70
2018-04-06T06:06:10.778Z,3.67
2018-04-06T06:07:10.781Z,3.64
2018-04-06T06:08:10.805Z,3.82
2018-04-06T06:09:10.794Z,3.76
2018-04-06T06:10:10.800Z,3.83
2018-04-06T06:11:10.802Z,3.82
2018-04-06T06:12:10.811Z,3.75
2018-04-06T06:13:10.817Z,3.76
2018-04-06T06:14:10.829Z,3.75
2018-04-06T06:15:10.826Z,3.75
2018-04-06T06:16:10.835Z,3.86
2018-04-06T06:17:10.841Z,3.88
2018-04-06T06:18:10.843Z,3.83
2018-04-06T06:19:10.868Z,3.96
2018-04-06T06:20:10.904Z,3.90
2018-04-06T06:21:10.868Z,3.96
2018-04-06T06:22:10.872Z,4.06
2018-04-06T06:23:10.920Z,4.07
2018-04-06T06:24:10.883Z,4.12
2018-04-06T06:25:10.894Z,4.14
2018-04-06T06:26:10.890Z,4.19
2018-04-06T06:27:10.895Z,4.21
2018-04-06T06:28:10.909Z,4.25
2018-04-06T06:29:10.934Z,4.28
2018-04-06T06:30:10.914Z,4.25
2018-04-06T06:31:10.920Z,4.37
2018-04-06T06:32:10.929Z,4.28
2018-04-06T06:33:10.972Z,4.37
2018-04-06T06:34:10.950Z,4.36
2018-04-06T06:35:10.945Z,4.37
2018-04-06T06:36:10.955Z,4.43
2018-04-06T06:37:10.957Z,4.47
2018-04-06T06:38:10.965Z,4.47
2018-04-06T06:39:10.969Z,4.47
2018-04-06T06:40:10.982Z,4.43
2018-04-06T06:41:10.981Z,4.52
2018-04-06T06:42:10.998Z,4.58
2018-04-06T06:43:11.006Z,4.64
2018-04-06T06:44:11.007Z,4.61
2018-04-06T06:45:11.008Z,4.64
2018-04-06T06:46:11.013Z,4.67
2018-04-06T06:47:11.027Z,4.73
2018-04-06T06:48:11.061Z,4.69
2018-04-06T06:49:11.035Z,4.79
2018-04-06T06:50:11.039Z,4.77
2018-04-06T06:51:11.043Z,4.79
2018-04-06T06:52:11.052Z,4.83
2018-04-06T06:53:11.062Z,4.91
2018-04-06T06:54:11.062Z,4.99
2018-04-06T06:55:11.069Z,4.96
2018-04-06T06:56:11.076Z,5.13
2018-04-06T06:57:11.083Z,5.19
2018-04-06T06:58:11.089Z,5.22
2018-04-06T06:59:11.102Z,5.13
2018-04-06T07:00:11.106Z,5.19
2018-04-06T07:01:11.111Z,5.25
2018-04-06T07:02:11.113Z,5.27
2018-04-06T07:03:11.122Z,5.35
2018-04-06T07:04:11.132Z,5.35
2018-04-06T07:05:11.140Z,5.40
2018-04-06T07:06:11.141Z,5.48
2018-04-06T07:07:11.874Z,5.40
2018-04-06T07:08:11.158Z,5.52
2018-04-06T07:09:11.169Z,5.56
2018-04-06T07:10:11.170Z,5.48
2018-04-06T07:11:11.175Z,5.66
2018-04-06T07:12:11.179Z,5.73
2018-04-06T07:13:11.186Z,5.73
2018-04-06T07:14:11.191Z,5.70
2018-04-06T07:15:11.202Z,5.77
2018-04-06T07:16:11.208Z,5.85
2018-04-06T07:17:11.246Z,5.83
2018-04-06T07:18:11.222Z,5.77
2018-04-06T07:19:11.226Z,5.85
2018-04-06T07:20:11.238Z,5.98
2018-04-06T07:21:11.240Z,6.03
2018-04-06T07:22:11.249Z,5.98
2018-04-06T07:23:11.260Z,6.01
2018-04-06T07:24:11.263Z,5.98
2018-04-06T07:25:11.272Z,6.04
2018-04-06T07:26:11.318Z,6.14
2018-04-06T07:27:11.283Z,6.29
2018-04-06T07:28:11.295Z,6.19
2018-04-06T07:29:11.294Z,6.29
2018-04-06T07:30:11.310Z,6.33
2018-04-06T07:31:11.308Z,6.40
2018-04-06T07:32:11.317Z,6.43
2018-04-06T07:33:11.332Z,6.48
2018-04-06T07:34:11.330Z,6.50
2018-04-06T07:35:11.344Z,6.48
2018-04-06T07:36:11.351Z,6.62
2018-04-06T07:37:11.360Z,6.72
2018-04-06T07:38:11.356Z,6.72
2018-04-06T07:39:11.366Z,6.83
2018-04-06T07:40:11.376Z,6.86
2018-04-06T07:41:11.383Z,6.97
2018-04-06T07:42:11.399Z,6.83
2018-04-06T07:43:11.392Z,6.98
2018-04-06T07:44:11.403Z,6.94
2018-04-06T07:45:11.411Z,6.97
2018-04-06T07:46:11.423Z,7.07
2018-04-06T07:47:11.419Z,7.13
2018-04-06T07:48:11.431Z,7.19
2018-04-06T07:49:11.444Z,7.19
2018-04-06T07:50:11.453Z,7.22
2018-04-06T07:51:11.449Z,7.22
2018-04-06T07:52:11.458Z,7.24
2018-04-06T07:53:11.498Z,7.37
2018-04-06T07:54:11.475Z,7.45
2018-04-06T07:55:11.487Z,7.52
2018-04-06T07:56:11.502Z,7.47
2018-04-06T07:57:11.498Z,7.47
2018-04-06T07:58:11.504Z,7.42
2018-04-06T07:59:11.508Z,7.38
2018-04-06T08:00:11.518Z,7.34
2018-04-06T08:01:11.534Z,7.35
2018-04-06T08:02:11.531Z,7.41
2018-04-06T08:03:11.562Z,7.27
2018-04-06T08:04:11.547Z,7.27
2018-04-06T08:05:11.558Z,7.37
2018-04-06T08:06:11.560Z,7.41
2018-04-06T08:07:11.570Z,7.52
2018-04-06T08:08:11.579Z,7.55
2018-04-06T08:09:11.592Z,7.59
2018-04-06T08:10:11.591Z,7.49
2018-04-06T08:11:11.598Z,7.55
2018-04-06T08:12:11.624Z,7.47
2018-04-06T08:13:11.621Z,7.53
2018-04-06T08:14:11.630Z,7.58
2018-04-06T08:15:11.632Z,7.75
2018-04-06T08:16:11.637Z,7.79
2018-04-06T08:17:11.652Z,7.82
2018-04-06T08:18:11.651Z,7.82
2018-04-06T08:19:11.659Z,7.90
2018-04-06T08:20:11.668Z,7.93
2018-04-06T08:21:11.684Z,7.93
2018-04-06T08:22:11.688Z,7.82
2018-04-06T08:23:11.702Z,7.90
2018-04-06T08:24:11.700Z,7.87
2018-04-06T08:25:11.704Z,7.81
2018-04-06T08:26:11.734Z,7.87
2018-04-06T08:27:11.725Z,8.04
2018-04-06T08:28:11.729Z,8.03
2018-04-06T08:29:11.737Z,8.14
2018-04-06T08:30:11.747Z,8.18
2018-04-06T08:31:11.749Z,8.12
2018-04-06T08:32:11.759Z,8.18
2018-04-06T08:33:11.765Z,8.22
2018-04-06T08:34:11.774Z,8.32
2018-04-06T08:35:11.785Z,8.32
2018-04-06T08:36:11.788Z,8.53
2018-04-06T08:37:11.797Z,8.58
2018-04-06T08:38:11.813Z,8.51
2018-04-06T08:39:11.821Z,8.53
2018-04-06T08:40:11.820Z,8.57
2018-04-06T08:41:11.838Z,8.65
2018-04-06T08:42:11.843Z,8.53
2018-04-06T08:43:11.840Z,8.60
2018-04-06T08:44:11.862Z,8.58
2018-04-06T08:45:11.865Z,8.69
2018-04-06T08:46:11.884Z,8.86
2018-04-06T08:47:11.881Z,8.87
2018-04-06T08:48:11.886Z,9.05
2018-04-06T08:49:11.893Z,8.97
2018-04-06T08:50:11.895Z,9.20
2018-04-06T08:51:11.904Z,9.15
2018-04-06T08:52:12.685Z,9.15
2018-04-06T08:53:11.921Z,9.24
2018-04-06T08:54:11.935Z,9.15
2018-04-06T08:55:11.936Z,9.06
2018-04-06T08:56:11.946Z,9.12
2018-04-06T08:57:11.954Z,9.21
2018-04-06T08:58:11.960Z,9.20
2018-04-06T08:59:11.971Z,9.28
2018-04-06T09:00:11.983Z,9.20
2018-04-06T09:01:11.987Z,9.20
2018-04-06T09:02:11.993Z,9.27
2018-04-06T09:03:12.003Z,9.28
2018-04-06T09:04:12.012Z,9.25
2018-04-06T09:05:12.023Z,9.32
2018-04-06T09:06:12.036Z,9.34
2018-04-06T09:07:12.057Z,9.39
2018-04-06T09:08:12.040Z,9.43
2018-04-06T09:09:12.085Z,9.45
2018-04-06T09:10:12.058Z,9.40
2018-04-06T09:11:12.066Z,9.34
2018-04-06T09:12:12.089Z,9.49
2018-04-06T09:13:12.084Z,9.57
2018-04-06T09:14:12.092Z,9.64
2018-04-06T09:15:12.129Z,9.66
2018-04-06T09:16:12.111Z,9.73
2018-04-06T09:17:12.116Z,9.71
2018-04-06T09:18:12.135Z,9.81
2018-04-06T09:19:12.138Z,9.83
2018-04-06T09:20:12.143Z,9.85
2018-04-06T09:21:12.205Z,9.97
2018-04-06T09:22:12.159Z,9.99
2018-04-06T09:23:12.207Z,10.01
2018-04-06T09:24:12.181Z,10.03
2018-04-06T09:25:12.181Z,10.09
2018-04-06T09:26:12.192Z,10.03
2018-04-06T09:27:12.197Z,10.12
2018-04-06T09:28:12.209Z,10.21
2018-04-06T09:29:12.217Z,10.17
2018-04-06T09:30:12.222Z,10.33
2018-04-06T09:31:12.239Z,10.25
2018-04-06T09:32:12.265Z,10.18
2018-04-06T09:33:12.253Z,10.32
2018-04-06T09:34:12.262Z,10.19
2018-04-06T09:35:12.277Z,10.34
2018-04-06T09:36:12.274Z,10.30
2018-04-06T09:37:12.291Z,10.39
2018-04-06T09:38:12.291Z,10.40
2018-04-06T09:39:12.302Z,10.42
2018-04-06T09:40:12.308Z,10.52
2018-04-06T09:41:12.318Z,10.55
2018-04-06T09:42:12.328Z,10.73
2018-04-06T09:43:12.335Z,10.63
2018-04-06T09:44:12.351Z,10.73
2018-04-06T09:45:12.354Z,10.83
2018-04-06T09:46:12.365Z,10.99
2018-04-06T09:47:12.376Z,11.02
2018-04-06T09:48:12.383Z,11.10
2018-04-06T09:49:12.403Z,11.24
2018-04-06T09:50:12.399Z,11.24
2018-04-06T09:51:12.412Z,11.28
2018-04-06T09:52:12.413Z,11.27
2018-04-06T09:53:12.464Z,11.32
2018-04-06T09:54:12.435Z,11.31
2018-04-06T09:55:12.439Z,11.24
2018-04-06T09:56:13.142Z,11.21
2018-04-06T09:57:12.458Z,11.34
2018-04-06T09:58:12.679Z,11.25
2018-04-06T09:59:12.486Z,11.19
2018-04-06T10:00:12.486Z,11.06
2018-04-06T10:01:12.494Z,11.07
2018-04-06T10:02:12.504Z,11.10
2018-04-06T10:03:12.519Z,11.03
2018-04-06T10:04:12.526Z,11.10
2018-04-06T10:05:12.531Z,11.16
2018-04-06T10:06:12.540Z,11.16
2018-04-06T10:07:13.142Z,11.19
2018-04-06T10:08:12.561Z,11.27
2018-04-06T10:09:12.568Z,11.20
2018-04-06T10:10:12.582Z,11.07
2018-04-06T10:11:12.604Z,11.09
2018-04-06T10:12:12.602Z,11.09
2018-04-06T10:13:12.605Z,11.10
2018-04-06T10:14:12.614Z,11.20
2018-04-06T10:15:12.624Z,11.31
2018-04-06T10:16:12.633Z,11.49
2018-04-06T10:17:12.642Z,11.54
2018-04-06T10:18:12.650Z,11.56
2018-04-06T10:19:12.664Z,11.68
2018-04-06T10:20:12.682Z,11.83
2018-04-06T10:21:12.678Z,11.83
2018-04-06T10:22:12.689Z,11.96
2018-04-06T10:23:12.697Z,11.99
2018-04-06T10:24:13.650Z,12.04
2018-04-06T10:25:12.716Z,12.06
2018-04-06T10:26:12.735Z,12.09
2018-04-06T10:27:12.738Z,12.19
2018-04-06T10:28:12.745Z,12.16
2018-04-06T10:29:12.754Z,12.24
2018-04-06T10:30:12.776Z,12.30
2018-04-06T10:31:12.777Z,12.38
2018-04-06T10:32:12.785Z,12.33
2018-04-06T10:33:12.850Z,12.39
2018-04-06T10:34:12.806Z,12.45
2018-04-06T10:35:12.835Z,12.56
2018-04-06T10:36:12.818Z,12.70
2018-04-06T10:37:12.845Z,12.70
2018-04-06T10:38:12.841Z,12.74
2018-04-06T10:39:12.848Z,12.70
2018-04-06T10:40:12.859Z,12.75
2018-04-06T10:41:12.868Z,12.82
2018-04-06T10:42:12.879Z,12.95
2018-04-06T10:43:12.896Z,12.96
2018-04-06T10:44:12.901Z,12.92
2018-04-06T10:45:12.905Z,13.00
2018-04-06T10:46:12.914Z,12.92
2018-04-06T10:47:12.930Z,12.85
2018-04-06T10:48:12.941Z,12.92
2018-04-06T10:49:12.945Z,13.04
2018-04-06T10:50:12.964Z,13.14
2018-04-06T10:51:12.967Z,13.21
2018-04-06T10:52:12.981Z,13.38
2018-04-06T10:53:12.985Z,13.74
2018-04-06T10:54:12.993Z,14.24
2018-04-06T10:55:13.028Z,14.52
2018-04-06T10:56:13.015Z,15.17
2018-04-06T10:57:13.036Z,15.78
2018-04-06T10:58:13.036Z,16.31
2018-04-06T10:59:13.047Z,16.65
2018-04-06T11:00:13.060Z,16.63
2018-04-06T11:01:13.070Z,17.08
2018-04-06T11:02:13.084Z,17.43
2018-04-06T11:03:13.102Z,17.36
2018-04-06T11:04:13.112Z,17.43
2018-04-06T11:05:13.125Z,18.17
2018-04-06T11:06:13.147Z,18.72
2018-04-06T11:07:13.161Z,19.02
2018-04-06T11:08:13.170Z,19.42
2018-04-06T11:09:13.194Z,19.31
2018-04-06T11:10:13.235Z,19.58
2018-04-06T11:11:13.222Z,19.70
2018-04-06T11:12:13.238Z,18.87
2018-04-06T11:13:13.254Z,19.01
2018-04-06T11:14:13.272Z,19.36
2018-04-06T11:15:13.294Z,19.58
2018-04-06T11:16:13.311Z,19.79
2018-04-06T11:17:13.332Z,19.90
2018-04-06T11:18:13.347Z,20.51
2018-04-06T11:19:13.368Z,20.64
2018-04-06T11:20:13.383Z,20.72
2018-04-06T11:21:13.411Z,20.43
2018-04-06T11:22:13.424Z,20.42
2018-04-06T11:23:13.467Z,20.61
2018-04-06T11:24:13.463Z,21.09
2018-04-06T11:25:13.494Z,21.29
2018-04-06T11:26:13.503Z,21.02
2018-04-06T11:27:13.529Z,21.32
2018-04-06T11:28:13.551Z,21.56
2018-04-06T11:29:13.564Z,21.45
2018-04-06T11:30:13.585Z,21.69
2018-04-06T11:31:13.605Z,21.23
2018-04-06T11:32:13.631Z,21.56
2018-04-06T11:33:13.649Z,21.35
2018-04-06T11:34:13.681Z,21.30
2018-04-06T11:35:13.706Z,21.79
2018-04-06T11:36:13.711Z,21.82
2018-04-06T11:37:13.737Z,21.39
2018-04-06T11:38:13.767Z,21.04
2018-04-06T11:39:13.777Z,20.83
2018-04-06T11:40:13.800Z,20.79
2018-04-06T11:41:13.825Z,20.13
2018-04-06T11:42:13.848Z,20.18
2018-04-06T11:43:13.869Z,20.21
2018-04-06T11:44:13.930Z,20.10
2018-04-06T11:45:13.911Z,20.23
2018-04-06T11:46:13.939Z,20.74
2018-04-06T11:47:13.965Z,20.79
2018-04-06T11:48:13.981Z,21.20
2018-04-06T11:49:14.004Z,21.26
2018-04-06T11:50:14.026Z,20.74
2018-04-06T11:51:14.055Z,20.84
2018-04-06T11:52:14.086Z,21.41
2018-04-06T11:53:14.096Z,22.16
2018-04-06T11:54:14.144Z,21.98
2018-04-06T11:55:14.141Z,22.12
2018-04-06T11:56:14.162Z,22.31
2018-04-06T11:57:14.191Z,22.90
2018-04-06T11:58:14.212Z,22.77
2018-04-06T11:59:14.230Z,22.86
2018-04-06T12:00:14.254Z,22.65
2018-04-06T12:01:14.276Z,22.96
2018-04-06T12:02:14.307Z,22.19
2018-04-06T12:03:14.326Z,22.06
2018-04-06T12:04:14.372Z,22.39
2018-04-06T12:05:14.369Z,22.94
2018-04-06T12:06:14.757Z,22.28
2018-04-06T12:07:14.417Z,22.54
2018-04-06T12:08:14.442Z,22.25
2018-04-06T12:09:14.464Z,22.57
2018-04-06T12:10:14.488Z,22.93
2018-04-06T12:11:14.522Z,23.17
2018-04-06T12:12:14.538Z,22.65
2018-04-06T12:13:14.560Z,22.22
2018-04-06T12:14:14.588Z,22.16
2018-04-06T12:15:14.613Z,22.20
2018-04-06T12:16:14.633Z,22.44
2018-04-06T12:17:14.665Z,23.07
2018-04-06T12:18:14.682Z,23.53
2018-04-06T12:19:14.710Z,22.62
2018-04-06T12:20:14.733Z,22.97
2018-04-06T12:21:14.757Z,23.46
2018-04-06T12:22:14.780Z,22.97
2018-04-06T12:23:14.812Z,23.67
2018-04-06T12:24:14.834Z,23.12
2018-04-06T12:25:14.855Z,23.45
2018-04-06T12:26:14.895Z,21.85
2018-04-06T12:27:14.903Z,21.95
2018-04-06T12:28:14.928Z,22.39
2018-04-06T12:29:14.955Z,22.69
2018-04-06T12:30:14.978Z,22.99
2018-04-06T12:31:15.002Z,24.02
2018-04-06T12:32:15.032Z,24.31
2018-04-06T12:33:15.055Z,24.71
2018-04-06T12:34:15.080Z,24.39
2018-04-06T12:35:15.109Z,24.35
2018-04-06T12:36:15.133Z,25.44
2018-04-06T12:37:15.151Z,25.13
2018-04-06T12:38:15.178Z,25.57
2018-04-06T12:39:15.202Z,25.67
2018-04-06T12:40:15.227Z,25.50
2018-04-06T12:41:15.265Z,23.80
2018-04-06T12:42:15.278Z,23.42
2018-04-06T12:43:15.302Z,24.38
2018-04-06T12:44:15.331Z,24.42
2018-04-06T12:45:15.358Z,24.14
2018-04-06T12:46:15.380Z,25.15
2018-04-06T12:47:15.509Z,25.44
2018-04-06T12:48:15.431Z,24.95
2018-04-06T12:49:15.459Z,24.13
2018-04-06T12:50:15.486Z,23.92
2018-04-06T12:51:15.509Z,24.76
2018-04-06T12:52:15.541Z,25.61
2018-04-06T12:53:15.577Z,24.83
2018-04-06T12:54:15.591Z,25.97
2018-04-06T12:55:15.619Z,25.94
2018-04-06T12:56:15.639Z,25.17
2018-04-06T12:57:15.674Z,25.00
2018-04-06T12:58:15.690Z,26.05
2018-04-06T12:59:15.716Z,26.67
2018-04-06T13:00:15.740Z,27.41
2018-04-06T13:01:15.777Z,26.99
2018-04-06T13:02:15.795Z,27.38
2018-04-06T13:03:15.832Z,26.05
2018-04-06T13:04:15.846Z,26.24
2018-04-06T13:05:15.875Z,26.46
2018-04-06T13:06:15.906Z,27.06
2018-04-06T13:07:15.940Z,27.43
2018-04-06T13:08:15.952Z,27.42
2018-04-06T13:09:15.980Z,26.94
2018-04-06T13:10:16.051Z,27.31